sensor_id;sensor_type;location;lat;lon;timestamp;pressure;altitude;pressure_sealevel;temperature;humidity
18678;BME280;9469;51.114;13.914;2022-11-15T00:03:45;98794.81;;;7.71;100.00
18678;BME280;9469;51.114;13.914;2022-11-15T00:09:10;98788.91;;;7.79;100.00
18678;BME280;9469;51.114;13.914;2022-11-15T00:14:36;98795.03;;;7.74;100.00
18678;BME280;9469;51.114;13.914;2022-11-15T00:20:01;98784.75;;;7.73;100.00
18678;BME280;9469;51.114;13.914;2022-11-15T00:25:24;98786.41;;;7.64;100.00
18678;BME280;9469;51.114;13.914;2022-11-15T00:30:51;98786.75;;;7.57;100.00
18678;BME280;9469;51.114;13.914;2022-11-15T00:36:14;98796.38;;;7.43;100.00
18678;BME280;9469;51.114;13.914;2022-11-15T00:41:38;98792.97;;;7.38;100.00
18678;BME280;9469;51.114;13.914;2022-11-15T00:47:04;98792.72;;;7.39;100.00
18678;BME280;9469;51.114;13.914;2022-11-15T00:52:27;98792.25;;;7.27;100.00
18678;BME280;9469;51.114;13.914;2022-11-15T00:57:51;98785.09;;;7.33;100.00
18678;BME280;9469;51.114;13.914;2022-11-15T01:03:18;98780.53;;;7.38;100.00
18678;BME280;9469;51.114;13.914;2022-11-15T01:08:41;98779.00;;;7.32;100.00
18678;BME280;9469;51.114;13.914;2022-11-15T01:14:05;98777.16;;;7.33;100.00
18678;BME280;9469;51.114;13.914;2022-11-15T01:19:32;98773.22;;;7.25;100.00
18678;BME280;9469;51.114;13.914;2022-11-15T01:24:55;98764.22;;;7.26;100.00
18678;BME280;9469;51.114;13.914;2022-11-15T01:30:19;98762.09;;;7.28;100.00
18678;BME280;9469;51.114;13.914;2022-11-15T01:35:46;98744.09;;;7.30;100.00
18678;BME280;9469;51.114;13.914;2022-11-15T01:41:15;98745.00;;;7.44;100.00
18678;BME280;9469;51.114;13.914;2022-11-15T01:46:41;98734.19;;;7.41;100.00
18678;BME280;9469;51.114;13.914;2022-11-15T01:52:13;98728.59;;;7.47;100.00
18678;BME280;9469;51.114;13.914;2022-11-15T01:57:41;98725.28;;;7.32;100.00
18678;BME280;9469;51.114;13.914;2022-11-15T02:03:07;98721.84;;;7.31;100.00
18678;BME280;9469;51.114;13.914;2022-11-15T02:08:33;98721.94;;;7.21;100.00
18678;BME280;9469;51.114;13.914;2022-11-15T02:13:58;98717.97;;;7.23;100.00
18678;BME280;9469;51.114;13.914;2022-11-15T02:19:36;98706.25;;;7.30;100.00
18678;BME280;9469;51.114;13.914;2022-11-15T02:25:37;98705.25;;;7.26;100.00
18678;BME280;9469;51.114;13.914;2022-11-15T02:31:11;98697.00;;;7.27;100.00
18678;BME280;9469;51.114;13.914;2022-11-15T02:36:42;98697.00;;;7.27;100.00
18678;BME280;9469;51.114;13.914;2022-11-15T02:42:12;98690.09;;;7.31;100.00
18678;BME280;9469;51.114;13.914;2022-11-15T02:47:54;98685.31;;;7.33;100.00
18678;BME280;9469;51.114;13.914;2022-11-15T02:53:23;98682.31;;;7.16;100.00
18678;BME280;9469;51.114;13.914;2022-11-15T02:59:06;98675.00;;;7.03;100.00
18678;BME280;9469;51.114;13.914;2022-11-15T03:04:41;98670.91;;;6.87;100.00
18678;BME280;9469;51.114;13.914;2022-11-15T03:10:11;98663.53;;;6.84;100.00
18678;BME280;9469;51.114;13.914;2022-11-15T03:15:43;98659.88;;;6.75;100.00
18678;BME280;9469;51.114;13.914;2022-11-15T03:21:11;98653.81;;;6.74;100.00
18678;BME280;9469;51.114;13.914;2022-11-15T03:26:38;98650.44;;;6.69;100.00
18678;BME280;9469;51.114;13.914;2022-11-15T03:32:07;98648.84;;;6.68;100.00
18678;BME280;9469;51.114;13.914;2022-11-15T03:37:40;98646.13;;;6.78;100.00
18678;BME280;9469;51.114;13.914;2022-11-15T03:43:08;98648.81;;;6.73;100.00
18678;BME280;9469;51.114;13.914;2022-11-15T03:48:39;98634.72;;;6.82;100.00
18678;BME280;9469;51.114;13.914;2022-11-15T03:54:07;98633.88;;;6.87;100.00
18678;BME280;9469;51.114;13.914;2022-11-15T03:59:31;98639.19;;;6.87;100.00
18678;BME280;9469;51.114;13.914;2022-11-15T04:04:54;98637.25;;;6.64;100.00
18678;BME280;9469;51.114;13.914;2022-11-15T04:10:20;98639.19;;;6.53;100.00
18678;BME280;9469;51.114;13.914;2022-11-15T04:15:44;98626.72;;;6.53;100.00
18678;BME280;9469;51.114;13.914;2022-11-15T04:21:11;98625.44;;;6.51;100.00
18678;BME280;9469;51.114;13.914;2022-11-15T04:26:50;98620.94;;;6.51;100.00
18678;BME280;9469;51.114;13.914;2022-11-15T04:32:18;98619.28;;;6.61;100.00
18678;BME280;9469;51.114;13.914;2022-11-15T04:37:41;98620.88;;;6.62;100.00
18678;BME280;9469;51.114;13.914;2022-11-15T04:43:11;98607.13;;;6.65;100.00
18678;BME280;9469;51.114;13.914;2022-11-15T04:48:35;98600.59;;;6.52;100.00
18678;BME280;9469;51.114;13.914;2022-11-15T04:53:59;98606.94;;;6.51;100.00
18678;BME280;9469;51.114;13.914;2022-11-15T04:59:26;98605.31;;;6.60;100.00
18678;BME280;9469;51.114;13.914;2022-11-15T05:04:49;98601.38;;;6.53;100.00
18678;BME280;9469;51.114;13.914;2022-11-15T05:10:15;98609.34;;;6.47;100.00
18678;BME280;9469;51.114;13.914;2022-11-15T05:15:42;98605.66;;;6.48;100.00
18678;BME280;9469;51.114;13.914;2022-11-15T05:21:09;98609.84;;;6.49;100.00
18678;BME280;9469;51.114;13.914;2022-11-15T05:26:34;98603.50;;;6.50;100.00
18678;BME280;9469;51.114;13.914;2022-11-15T05:32:01;98594.28;;;6.48;100.00
18678;BME280;9469;51.114;13.914;2022-11-15T05:37:28;98594.06;;;6.44;100.00
18678;BME280;9469;51.114;13.914;2022-11-15T05:43:00;98600.41;;;6.38;100.00
18678;BME280;9469;51.114;13.914;2022-11-15T05:48:28;98589.06;;;6.38;100.00
18678;BME280;9469;51.114;13.914;2022-11-15T05:53:53;98593.28;;;6.39;100.00
18678;BME280;9469;51.114;13.914;2022-11-15T05:59:20;98596.72;;;6.39;100.00
18678;BME280;9469;51.114;13.914;2022-11-15T06:04:50;98606.19;;;6.45;100.00
18678;BME280;9469;51.114;13.914;2022-11-15T06:10:13;98600.41;;;6.38;100.00
18678;BME280;9469;51.114;13.914;2022-11-15T06:15:40;98593.00;;;6.40;100.00
18678;BME280;9469;51.114;13.914;2022-11-15T06:21:07;98602.50;;;6.46;100.00
18678;BME280;9469;51.114;13.914;2022-11-15T06:26:38;98606.19;;;6.45;100.00
18678;BME280;9469;51.114;13.914;2022-11-15T06:32:04;98608.31;;;6.43;100.00
18678;BME280;9469;51.114;13.914;2022-11-15T06:37:33;98616.41;;;6.57;100.00
18678;BME280;9469;51.114;13.914;2022-11-15T06:43:00;98611.00;;;6.72;100.00
18678;BME280;9469;51.114;13.914;2022-11-15T06:48:24;98611.31;;;6.66;100.00
18678;BME280;9469;51.114;13.914;2022-11-15T06:53:50;98615.81;;;6.65;100.00
18678;BME280;9469;51.114;13.914;2022-11-15T06:59:14;98607.66;;;6.62;100.00
18678;BME280;9469;51.114;13.914;2022-11-15T07:04:40;98614.47;;;6.68;100.00
18678;BME280;9469;51.114;13.914;2022-11-15T07:10:08;98622.38;;;6.73;100.00
18678;BME280;9469;51.114;13.914;2022-11-15T07:15:34;98614.94;;;6.75;100.00
18678;BME280;9469;51.114;13.914;2022-11-15T07:21:07;98623.06;;;6.83;100.00
18678;BME280;9469;51.114;13.914;2022-11-15T07:26:42;98621.19;;;6.89;100.00
18678;BME280;9469;51.114;13.914;2022-11-15T07:32:09;98622.69;;;6.95;100.00
18678;BME280;9469;51.114;13.914;2022-11-15T07:37:35;98618.97;;;7.01;100.00
18678;BME280;9469;51.114;13.914;2022-11-15T07:43:07;98621.50;;;7.11;100.00
18678;BME280;9469;51.114;13.914;2022-11-15T07:48:35;98622.47;;;7.20;100.00
18678;BME280;9469;51.114;13.914;2022-11-15T07:54:04;98617.09;;;7.30;100.00
18678;BME280;9469;51.114;13.914;2022-11-15T07:59:33;98618.50;;;7.46;100.00
18678;BME280;9469;51.114;13.914;2022-11-15T08:04:58;98621.28;;;7.60;100.00
18678;BME280;9469;51.114;13.914;2022-11-15T08:10:23;98616.94;;;7.87;100.00
18678;BME280;9469;51.114;13.914;2022-11-15T08:15:52;98612.09;;;7.94;100.00
18678;BME280;9469;51.114;13.914;2022-11-15T08:21:21;98618.97;;;7.95;100.00
18678;BME280;9469;51.114;13.914;2022-11-15T08:26:47;98611.03;;;7.95;100.00
18678;BME280;9469;51.114;13.914;2022-11-15T08:32:13;98599.44;;;8.10;100.00
18678;BME280;9469;51.114;13.914;2022-11-15T08:37:38;98599.56;;;8.19;100.00
18678;BME280;9469;51.114;13.914;2022-11-15T08:43:03;98588.97;;;8.56;100.00
18678;BME280;9469;51.114;13.914;2022-11-15T08:48:31;98596.78;;;8.66;100.00
18678;BME280;9469;51.114;13.914;2022-11-15T08:53:59;98588.84;;;8.66;100.00
18678;BME280;9469;51.114;13.914;2022-11-15T08:59:24;98583.41;;;8.71;100.00
18678;BME280;9469;51.114;13.914;2022-11-15T09:04:49;98595.19;;;8.97;100.00
18678;BME280;9469;51.114;13.914;2022-11-15T09:10:13;98602.06;;;8.98;100.00
18678;BME280;9469;51.114;13.914;2022-11-15T09:15:38;98584.78;;;9.14;100.00
18678;BME280;9469;51.114;13.914;2022-11-15T09:21:08;98589.44;;;9.22;100.00
18678;BME280;9469;51.114;13.914;2022-11-15T09:26:34;98578.63;;;9.46;100.00
18678;BME280;9469;51.114;13.914;2022-11-15T09:32:00;98575.06;;;9.51;100.00
18678;BME280;9469;51.114;13.914;2022-11-15T09:37:31;98571.75;;;9.59;100.00
18678;BME280;9469;51.114;13.914;2022-11-15T09:43:05;98565.13;;;9.83;100.00
18678;BME280;9469;51.114;13.914;2022-11-15T09:48:50;98569.03;;;10.35;100.00
18678;BME280;9469;51.114;13.914;2022-11-15T09:54:38;98570.72;;;11.06;100.00
18678;BME280;9469;51.114;13.914;2022-11-15T10:00:13;98574.69;;;10.87;100.00
18678;BME280;9469;51.114;13.914;2022-11-15T10:05:44;98554.66;;;10.80;100.00
18678;BME280;9469;51.114;13.914;2022-11-15T10:22:58;98543.28;;;10.66;100.00
18678;BME280;9469;51.114;13.914;2022-11-15T10:28:27;98528.91;;;10.98;100.00
18678;BME280;9469;51.114;13.914;2022-11-15T10:39:28;98513.97;;;10.89;100.00
18678;BME280;9469;51.114;13.914;2022-11-15T10:44:42;98492.78;;;11.14;100.00
18678;BME280;9469;51.114;13.914;2022-11-15T10:50:05;98508.44;;;11.16;100.00
18678;BME280;9469;51.114;13.914;2022-11-15T10:55:26;98498.09;;;11.06;100.00
18678;BME280;9469;51.114;13.914;2022-11-15T11:00:35;98493.25;;;11.08;100.00
18678;BME280;9469;51.114;13.914;2022-11-15T11:05:41;98491.00;;;11.49;100.00
18678;BME280;9469;51.114;13.914;2022-11-15T11:10:55;98480.91;;;11.20;100.00
18678;BME280;9469;51.114;13.914;2022-11-15T11:21:45;98478.47;;;11.58;100.00
18678;BME280;9469;51.114;13.914;2022-11-15T11:27:08;98465.59;;;11.43;100.00
18678;BME280;9469;51.114;13.914;2022-11-15T11:32:32;98455.50;;;11.06;100.00
18678;BME280;9469;51.114;13.914;2022-11-15T11:37:47;98447.97;;;11.73;100.00
18678;BME280;9469;51.114;13.914;2022-11-15T11:43:04;98440.75;;;11.90;99.79
18678;BME280;9469;51.114;13.914;2022-11-15T11:48:18;98434.31;;;12.00;98.94
18678;BME280;9469;51.114;13.914;2022-11-15T11:53:29;98428.84;;;11.71;100.00
18678;BME280;9469;51.114;13.914;2022-11-15T11:58:41;98423.66;;;11.57;100.00
18678;BME280;9469;51.114;13.914;2022-11-15T12:03:51;98424.56;;;12.30;98.24
18678;BME280;9469;51.114;13.914;2022-11-15T12:09:13;98415.41;;;12.48;96.62
18678;BME280;9469;51.114;13.914;2022-11-15T12:14:32;98405.78;;;12.55;96.01
18678;BME280;9469;51.114;13.914;2022-11-15T12:19:38;98405.91;;;12.12;97.73
18678;BME280;9469;51.114;13.914;2022-11-15T12:24:52;98396.53;;;11.64;98.80
18678;BME280;9469;51.114;13.914;2022-11-15T12:30:07;98379.13;;;11.49;100.00
18678;BME280;9469;51.114;13.914;2022-11-15T12:35:26;98370.19;;;11.53;100.00
18678;BME280;9469;51.114;13.914;2022-11-15T12:41:13;98361.28;;;11.32;100.00
18678;BME280;9469;51.114;13.914;2022-11-15T12:47:00;98355.94;;;11.41;100.00
18678;BME280;9469;51.114;13.914;2022-11-15T12:52:07;98357.81;;;11.49;100.00
18678;BME280;9469;51.114;13.914;2022-11-15T12:57:29;98346.09;;;11.76;100.00
18678;BME280;9469;51.114;13.914;2022-11-15T13:02:39;98348.44;;;11.60;100.00
18678;BME280;9469;51.114;13.914;2022-11-15T13:07:58;98347.03;;;11.45;100.00
18678;BME280;9469;51.114;13.914;2022-11-15T13:13:42;98345.88;;;11.04;100.00
18678;BME280;9469;51.114;13.914;2022-11-15T13:18:58;98339.00;;;11.03;100.00
18678;BME280;9469;51.114;13.914;2022-11-15T13:24:11;98335.81;;;10.75;100.00
18678;BME280;9469;51.114;13.914;2022-11-15T13:29:18;98316.50;;;10.52;100.00
18678;BME280;9469;51.114;13.914;2022-11-15T13:34:30;98330.69;;;10.87;100.00
18678;BME280;9469;51.114;13.914;2022-11-15T13:40:15;98336.94;;;10.35;100.00
18678;BME280;9469;51.114;13.914;2022-11-15T13:45:24;98330.22;;;10.29;100.00
18678;BME280;9469;51.114;13.914;2022-11-15T13:50:35;98325.13;;;9.88;100.00
18678;BME280;9469;51.114;13.914;2022-11-15T13:55:42;98316.88;;;9.98;100.00
18678;BME280;9469;51.114;13.914;2022-11-15T14:00:47;98314.06;;;9.94;100.00
18678;BME280;9469;51.114;13.914;2022-11-15T14:06:06;98308.88;;;9.59;100.00
18678;BME280;9469;51.114;13.914;2022-11-15T14:11:16;98312.19;;;9.06;100.00
18678;BME280;9469;51.114;13.914;2022-11-15T14:16:21;98301.25;;;8.86;100.00
18678;BME280;9469;51.114;13.914;2022-11-15T14:27:25;98297.84;;;8.58;100.00
18678;BME280;9469;51.114;13.914;2022-11-15T14:32:41;98297.38;;;8.42;100.00
18678;BME280;9469;51.114;13.914;2022-11-15T14:37:53;98300.09;;;8.24;100.00
18678;BME280;9469;51.114;13.914;2022-11-15T14:43:03;98300.75;;;8.02;100.00
18678;BME280;9469;51.114;13.914;2022-11-15T14:48:09;98276.03;;;7.93;100.00
18678;BME280;9469;51.114;13.914;2022-11-15T14:53:17;98288.75;;;7.77;100.00
18678;BME280;9469;51.114;13.914;2022-11-15T14:58:24;98283.31;;;7.55;100.00
18678;BME280;9469;51.114;13.914;2022-11-15T15:03:29;98275.53;;;7.45;100.00
18678;BME280;9469;51.114;13.914;2022-11-15T15:08:37;98268.41;;;7.27;100.00
18678;BME280;9469;51.114;13.914;2022-11-15T15:13:42;98270.22;;;7.13;100.00
18678;BME280;9469;51.114;13.914;2022-11-15T15:18:48;98258.66;;;7.09;100.00
18678;BME280;9469;51.114;13.914;2022-11-15T15:23:55;98261.97;;;7.01;100.00
18678;BME280;9469;51.114;13.914;2022-11-15T15:29:00;98255.28;;;7.03;100.00
18678;BME280;9469;51.114;13.914;2022-11-15T15:34:06;98262.03;;;6.77;100.00
18678;BME280;9469;51.114;13.914;2022-11-15T15:39:21;98258.75;;;6.67;100.00
18678;BME280;9469;51.114;13.914;2022-11-15T15:44:27;98266.53;;;6.77;100.00
18678;BME280;9469;51.114;13.914;2022-11-15T15:49:32;98251.66;;;6.62;100.00
18678;BME280;9469;51.114;13.914;2022-11-15T15:54:40;98254.00;;;6.45;100.00
18678;BME280;9469;51.114;13.914;2022-11-15T15:59:46;98238.72;;;6.42;100.00
18678;BME280;9469;51.114;13.914;2022-11-15T16:04:50;98262.13;;;6.30;100.00
18678;BME280;9469;51.114;13.914;2022-11-15T16:09:58;98256.44;;;6.41;100.00
18678;BME280;9469;51.114;13.914;2022-11-15T16:15:09;98258.88;;;6.57;100.00
18678;BME280;9469;51.114;13.914;2022-11-15T16:20:23;98258.06;;;6.37;100.00
18678;BME280;9469;51.114;13.914;2022-11-15T16:25:32;98256.28;;;6.09;100.00
18678;BME280;9469;51.114;13.914;2022-11-15T16:30:39;98257.38;;;6.08;100.00
18678;BME280;9469;51.114;13.914;2022-11-15T16:35:44;98258.41;;;6.07;100.00
18678;BME280;9469;51.114;13.914;2022-11-15T16:40:52;98260.72;;;6.14;100.00
18678;BME280;9469;51.114;13.914;2022-11-15T16:45:57;98252.72;;;5.95;100.00
18678;BME280;9469;51.114;13.914;2022-11-15T16:51:02;98252.84;;;5.85;100.00
18678;BME280;9469;51.114;13.914;2022-11-15T16:56:19;98255.50;;;5.80;100.00
18678;BME280;9469;51.114;13.914;2022-11-15T17:01:25;98234.72;;;5.73;100.00
18678;BME280;9469;51.114;13.914;2022-11-15T17:06:31;98236.28;;;5.74;100.00
18678;BME280;9469;51.114;13.914;2022-11-15T17:11:44;98231.31;;;5.73;100.00
18678;BME280;9469;51.114;13.914;2022-11-15T17:16:50;98228.81;;;5.58;100.00
18678;BME280;9469;51.114;13.914;2022-11-15T17:21:58;98212.81;;;5.49;100.00
18678;BME280;9469;51.114;13.914;2022-11-15T17:27:07;98207.25;;;5.51;100.00
18678;BME280;9469;51.114;13.914;2022-11-15T17:32:12;98215.22;;;5.46;100.00
18678;BME280;9469;51.114;13.914;2022-11-15T17:37:17;98215.00;;;5.42;100.00
18678;BME280;9469;51.114;13.914;2022-11-15T17:42:26;98208.47;;;5.35;100.00
18678;BME280;9469;51.114;13.914;2022-11-15T17:47:31;98211.31;;;5.38;100.00
18678;BME280;9469;51.114;13.914;2022-11-15T17:52:36;98216.78;;;5.47;100.00
18678;BME280;9469;51.114;13.914;2022-11-15T17:57:45;98203.41;;;5.38;100.00
18678;BME280;9469;51.114;13.914;2022-11-15T18:02:52;98200.25;;;5.36;100.00
18678;BME280;9469;51.114;13.914;2022-11-15T18:07:57;98195.63;;;5.23;100.00
18678;BME280;9469;51.114;13.914;2022-11-15T18:13:05;98189.16;;;5.39;100.00
18678;BME280;9469;51.114;13.914;2022-11-15T18:18:11;98191.00;;;5.39;100.00
18678;BME280;9469;51.114;13.914;2022-11-15T18:23:16;98186.75;;;5.43;100.00
18678;BME280;9469;51.114;13.914;2022-11-15T18:28:28;98180.25;;;5.35;100.00
18678;BME280;9469;51.114;13.914;2022-11-15T18:33:36;98184.50;;;5.31;100.00
18678;BME280;9469;51.114;13.914;2022-11-15T18:38:42;98178.63;;;5.11;100.00
18678;BME280;9469;51.114;13.914;2022-11-15T18:43:51;98179.13;;;5.13;100.00
18678;BME280;9469;51.114;13.914;2022-11-15T18:49:00;98172.06;;;5.08;100.00
18678;BME280;9469;51.114;13.914;2022-11-15T18:54:05;98161.53;;;5.03;100.00
18678;BME280;9469;51.114;13.914;2022-11-15T18:59:14;98162.66;;;4.97;100.00
18678;BME280;9469;51.114;13.914;2022-11-15T19:04:20;98155.25;;;4.99;100.00
18678;BME280;9469;51.114;13.914;2022-11-15T19:09:27;98156.06;;;4.99;100.00
18678;BME280;9469;51.114;13.914;2022-11-15T19:14:36;98148.72;;;4.91;100.00
18678;BME280;9469;51.114;13.914;2022-11-15T19:19:41;98163.53;;;4.87;100.00
18678;BME280;9469;51.114;13.914;2022-11-15T19:24:47;98160.88;;;4.87;100.00
18678;BME280;9469;51.114;13.914;2022-11-15T19:29:55;98144.78;;;4.89;100.00
18678;BME280;9469;51.114;13.914;2022-11-15T19:35:00;98135.00;;;4.94;100.00
18678;BME280;9469;51.114;13.914;2022-11-15T19:40:07;98143.97;;;4.93;100.00
18678;BME280;9469;51.114;13.914;2022-11-15T19:45:20;98122.03;;;4.98;100.00
18678;BME280;9469;51.114;13.914;2022-11-15T19:50:26;98125.97;;;5.00;100.00
18678;BME280;9469;51.114;13.914;2022-11-15T19:55:32;98130.66;;;5.08;100.00
18678;BME280;9469;51.114;13.914;2022-11-15T20:00:40;98135.66;;;5.10;100.00
18678;BME280;9469;51.114;13.914;2022-11-15T20:05:45;98122.09;;;5.22;100.00
18678;BME280;9469;51.114;13.914;2022-11-15T20:10:51;98122.56;;;5.29;100.00
18678;BME280;9469;51.114;13.914;2022-11-15T20:15:59;98118.84;;;5.30;100.00
18678;BME280;9469;51.114;13.914;2022-11-15T20:21:06;98119.41;;;5.27;100.00
18678;BME280;9469;51.114;13.914;2022-11-15T20:26:11;98120.75;;;5.24;100.00
18678;BME280;9469;51.114;13.914;2022-11-15T20:31:19;98127.63;;;5.20;100.00
18678;BME280;9469;51.114;13.914;2022-11-15T20:36:25;98117.84;;;5.26;100.00
18678;BME280;9469;51.114;13.914;2022-11-15T20:41:30;98115.03;;;5.41;100.00
18678;BME280;9469;51.114;13.914;2022-11-15T20:46:39;98118.22;;;5.61;100.00
18678;BME280;9469;51.114;13.914;2022-11-15T20:51:44;98114.19;;;5.69;100.00
18678;BME280;9469;51.114;13.914;2022-11-15T20:56:49;98109.13;;;5.72;100.00
18678;BME280;9469;51.114;13.914;2022-11-15T21:01:57;98110.56;;;5.83;100.00
18678;BME280;9469;51.114;13.914;2022-11-15T21:07:03;98097.84;;;5.67;100.00
18678;BME280;9469;51.114;13.914;2022-11-15T21:12:11;98091.00;;;5.66;100.00
18678;BME280;9469;51.114;13.914;2022-11-15T21:17:20;98091.72;;;5.71;100.00
18678;BME280;9469;51.114;13.914;2022-11-15T21:22:26;98081.44;;;5.70;100.00
18678;BME280;9469;51.114;13.914;2022-11-15T21:27:31;98062.47;;;5.68;100.00
18678;BME280;9469;51.114;13.914;2022-11-15T21:32:39;98056.09;;;5.74;100.00
18678;BME280;9469;51.114;13.914;2022-11-15T21:37:44;98061.56;;;5.77;100.00
18678;BME280;9469;51.114;13.914;2022-11-15T21:42:57;98062.66;;;5.76;100.00
18678;BME280;9469;51.114;13.914;2022-11-15T21:48:05;98064.25;;;5.72;100.00
18678;BME280;9469;51.114;13.914;2022-11-15T21:53:13;98049.09;;;5.83;100.00
18678;BME280;9469;51.114;13.914;2022-11-15T21:58:22;98050.44;;;5.80;100.00
18678;BME280;9469;51.114;13.914;2022-11-15T22:03:33;98047.00;;;5.85;100.00
18678;BME280;9469;51.114;13.914;2022-11-15T22:08:39;98042.28;;;5.77;100.00
18678;BME280;9469;51.114;13.914;2022-11-15T22:13:43;98044.84;;;5.87;100.00
18678;BME280;9469;51.114;13.914;2022-11-15T22:18:53;98032.06;;;5.94;100.00
18678;BME280;9469;51.114;13.914;2022-11-15T22:24:00;98036.75;;;5.97;100.00
18678;BME280;9469;51.114;13.914;2022-11-15T22:29:05;98028.28;;;6.00;100.00
18678;BME280;9469;51.114;13.914;2022-11-15T22:34:13;98028.78;;;6.02;100.00
18678;BME280;9469;51.114;13.914;2022-11-15T22:39:21;98024.00;;;6.04;100.00
18678;BME280;9469;51.114;13.914;2022-11-15T22:44:26;98015.00;;;6.05;100.00
18678;BME280;9469;51.114;13.914;2022-11-15T22:49:34;98002.25;;;6.12;100.00
18678;BME280;9469;51.114;13.914;2022-11-15T22:54:40;97997.09;;;6.02;100.00
18678;BME280;9469;51.114;13.914;2022-11-15T22:59:48;97986.03;;;6.00;100.00
18678;BME280;9469;51.114;13.914;2022-11-15T23:04:56;97975.72;;;6.04;100.00
18678;BME280;9469;51.114;13.914;2022-11-15T23:10:02;97965.91;;;6.04;100.00
18678;BME280;9469;51.114;13.914;2022-11-15T23:15:19;97967.78;;;6.04;100.00
18678;BME280;9469;51.114;13.914;2022-11-15T23:20:27;97959.88;;;6.04;100.00
18678;BME280;9469;51.114;13.914;2022-11-15T23:25:44;97952.81;;;5.99;100.00
18678;BME280;9469;51.114;13.914;2022-11-15T23:30:49;97958.50;;;6.06;100.00
18678;BME280;9469;51.114;13.914;2022-11-15T23:36:09;97947.84;;;6.11;100.00
18678;BME280;9469;51.114;13.914;2022-11-15T23:41:15;97943.81;;;6.00;100.00
18678;BME280;9469;51.114;13.914;2022-11-15T23:46:20;97947.41;;;6.23;100.00
18678;BME280;9469;51.114;13.914;2022-11-15T23:51:31;97945.22;;;6.11;100.00
18678;BME280;9469;51.114;13.914;2022-11-15T23:56:38;97934.97;;;6.23;100.00
